createdAt,value
2022-09-01T00:00:13.347Z,54.28
2022-09-01T00:02:43.221Z,53.14
2022-09-01T00:05:10.668Z,53.91
2022-09-01T00:07:37.836Z,52.51
2022-09-01T00:10:06.355Z,52.85
2022-09-01T00:12:34.148Z,55.03
2022-09-01T00:15:01.309Z,54.62
2022-09-01T00:17:30.452Z,55.00
2022-09-01T00:19:57.596Z,54.83
2022-09-01T00:22:24.766Z,53.20
2022-09-01T00:24:52.271Z,54.73
2022-09-01T00:27:19.443Z,55.21
2022-09-01T00:29:47.137Z,52.65
2022-09-01T00:32:14.610Z,53.95
2022-09-01T00:34:42.000Z,53.27
2022-09-01T00:37:09.214Z,54.28
2022-09-01T00:39:39.328Z,54.25
2022-09-01T00:42:07.068Z,55.66
2022-09-01T00:44:36.481Z,54.71
2022-09-01T00:47:06.791Z,56.69
2022-09-01T00:49:45.324Z,54.75
2022-09-01T00:52:17.993Z,55.61
2022-09-01T00:54:46.608Z,56.02
2022-09-01T00:57:14.049Z,53.92
2022-09-01T00:59:47.192Z,54.20
2022-09-01T01:02:14.709Z,54.65
2022-09-01T01:04:43.885Z,55.62
2022-09-01T01:07:11.350Z,54.55
2022-09-01T01:09:58.031Z,55.60
2022-09-01T01:12:28.069Z,55.15
2022-09-01T01:14:56.119Z,55.76
2022-09-01T01:17:23.405Z,56.53
2022-09-01T01:20:14.148Z,55.80
2022-09-01T01:23:05.693Z,56.91
2022-09-01T01:25:38.448Z,55.33
2022-09-01T01:28:15.924Z,55.67
2022-09-01T01:30:44.852Z,55.73
2022-09-01T01:33:12.336Z,56.08
2022-09-01T01:35:41.999Z,57.33
2022-09-01T01:38:09.251Z,56.45
2022-09-01T01:40:37.548Z,57.30
2022-09-01T01:43:05.594Z,57.46
2022-09-01T01:45:32.972Z,57.84
2022-09-01T01:48:01.203Z,57.08
2022-09-01T01:50:34.154Z,57.98
2022-09-01T01:53:03.630Z,56.72
2022-09-01T01:55:39.564Z,57.57
2022-09-01T01:58:09.888Z,56.69
2022-09-01T02:00:37.790Z,57.08
2022-09-01T02:03:05.302Z,56.89
2022-09-01T02:05:33.231Z,57.52
2022-09-01T02:08:05.256Z,57.28
2022-09-01T02:10:34.305Z,56.92
2022-09-01T02:13:07.119Z,57.68
2022-09-01T02:15:38.824Z,58.48
2022-09-01T02:18:06.155Z,57.97
2022-09-01T02:20:33.552Z,59.23
2022-09-01T02:23:10.679Z,58.09
2022-09-01T02:25:45.939Z,58.28
2022-09-01T02:28:28.687Z,58.39
2022-09-01T02:30:57.730Z,58.01
2022-09-01T02:33:25.925Z,58.44
2022-09-01T02:35:57.670Z,58.13
2022-09-01T02:38:30.218Z,57.78
2022-09-01T02:40:58.953Z,57.54
2022-09-01T02:43:28.249Z,57.41
2022-09-01T02:45:57.695Z,56.93
2022-09-01T02:48:35.885Z,57.59
2022-09-01T02:51:04.670Z,58.40
2022-09-01T02:53:35.612Z,55.66
2022-09-01T02:56:04.390Z,56.95
2022-09-01T02:58:34.450Z,57.24
2022-09-01T03:01:02.854Z,57.91
2022-09-01T03:03:30.185Z,55.75
2022-09-01T03:05:58.056Z,55.92
2022-09-01T03:08:25.419Z,55.82
2022-09-01T03:10:54.295Z,55.61
2022-09-01T03:13:23.745Z,56.72
2022-09-01T03:15:51.060Z,57.23
2022-09-01T03:18:21.645Z,57.59
2022-09-01T03:20:54.084Z,57.08
2022-09-01T03:23:21.329Z,57.72
2022-09-01T03:25:49.344Z,58.37
2022-09-01T03:28:17.317Z,57.95
2022-09-01T03:30:46.142Z,57.84
2022-09-01T03:33:13.889Z,56.27
2022-09-01T03:35:42.127Z,56.29
2022-09-01T03:38:09.785Z,57.38
2022-09-01T03:40:38.206Z,56.81
2022-09-01T03:43:07.036Z,56.10
2022-09-01T03:45:38.498Z,57.93
2022-09-01T03:48:09.088Z,56.39
2022-09-01T03:50:47.329Z,57.63
2022-09-01T03:53:16.098Z,57.53
2022-09-01T03:55:45.205Z,57.27
2022-09-01T03:58:14.554Z,56.38
2022-09-01T04:00:47.717Z,57.08
2022-09-01T04:03:28.582Z,58.53
2022-09-01T04:05:56.602Z,59.04
2022-09-01T04:08:32.902Z,59.15
2022-09-01T04:11:02.922Z,57.96
2022-09-01T04:13:37.608Z,56.85
2022-09-01T04:16:31.777Z,56.50
2022-09-01T04:19:00.480Z,57.34
2022-09-01T04:21:30.451Z,56.19
2022-09-01T04:24:05.286Z,57.34
2022-09-01T04:26:34.242Z,56.93
2022-09-01T04:29:01.396Z,57.27
2022-09-01T04:31:31.064Z,58.52
2022-09-01T04:33:59.260Z,59.30
2022-09-01T04:36:27.525Z,57.80
2022-09-01T04:38:56.122Z,59.00
2022-09-01T04:41:31.017Z,58.57
2022-09-01T04:44:01.416Z,57.18
2022-09-01T04:46:32.523Z,58.73
2022-09-01T04:49:03.305Z,58.41
2022-09-01T04:51:31.125Z,58.56
2022-09-01T04:53:58.370Z,58.01
2022-09-01T04:56:26.846Z,58.06
2022-09-01T04:58:55.854Z,57.72
2022-09-01T05:01:24.432Z,58.97
2022-09-01T05:04:01.389Z,58.46
2022-09-01T05:06:33.955Z,58.97
2022-09-01T05:09:01.354Z,58.19
2022-09-01T05:11:29.811Z,58.02
2022-09-01T05:13:58.371Z,59.04
2022-09-01T05:16:27.966Z,59.14
2022-09-01T05:18:57.003Z,58.64
2022-09-01T05:21:26.668Z,58.09
2022-09-01T05:23:54.345Z,58.57
2022-09-01T05:26:23.882Z,58.34
2022-09-01T05:28:54.036Z,58.79
2022-09-01T05:31:22.373Z,59.60
2022-09-01T05:33:50.894Z,59.92
2022-09-01T05:36:20.236Z,60.06
2022-09-01T05:38:48.184Z,60.08
2022-09-01T05:41:16.176Z,59.89
2022-09-01T05:43:49.036Z,59.29
2022-09-01T05:46:17.039Z,60.26
2022-09-01T05:48:45.517Z,60.32
2022-09-01T05:51:42.227Z,59.47
2022-09-01T05:54:05.024Z,58.77
2022-09-01T05:56:37.630Z,57.37
2022-09-01T05:59:23.676Z,57.86
2022-09-01T06:01:53.369Z,58.23
2022-09-01T06:04:22.350Z,57.90
2022-09-01T06:07:07.923Z,57.49
2022-09-01T06:09:40.092Z,57.94
2022-09-01T06:12:11.991Z,57.32
2022-09-01T06:14:39.578Z,57.75
2022-09-01T06:17:10.094Z,57.05
2022-09-01T06:19:38.316Z,57.66
2022-09-01T06:22:06.495Z,58.43
2022-09-01T06:24:33.806Z,59.36
2022-09-01T06:27:01.270Z,58.58
2022-09-01T06:29:31.405Z,58.15
2022-09-01T06:32:02.348Z,58.98
2022-09-01T06:34:31.988Z,58.78
2022-09-01T06:36:59.843Z,55.65
2022-09-01T06:39:27.094Z,57.63
2022-09-01T06:41:58.136Z,57.29
2022-09-01T06:44:26.082Z,57.64
2022-09-01T06:46:53.911Z,57.82
2022-09-01T06:49:23.670Z,58.30
2022-09-01T06:51:52.795Z,56.83
2022-09-01T06:54:22.884Z,55.32
2022-09-01T06:56:51.721Z,55.98
2022-09-01T06:59:20.772Z,56.93
2022-09-01T07:04:43.077Z,58.42
2022-09-01T07:10:18.311Z,59.67
2022-09-01T07:13:07.824Z,59.24
2022-09-01T07:18:31.334Z,59.51
2022-09-01T07:21:07.679Z,59.99
2022-09-01T07:24:07.638Z,58.52
2022-09-01T07:26:36.623Z,59.01
2022-09-01T07:29:12.940Z,60.21
2022-09-01T07:34:46.288Z,59.38
2022-09-01T07:38:46.903Z,60.36
2022-09-01T07:39:57.367Z,58.10
2022-09-01T07:45:33.408Z,58.25
2022-09-01T07:48:06.612Z,57.56
2022-09-01T07:50:40.982Z,56.60
2022-09-01T07:53:31.460Z,57.91
2022-09-01T07:56:00.128Z,57.61
2022-09-01T07:58:28.256Z,58.53
2022-09-01T08:01:02.861Z,59.23
2022-09-01T08:03:30.480Z,57.86
2022-09-01T08:06:04.097Z,57.27
2022-09-01T08:08:31.985Z,57.46
2022-09-01T08:11:06.326Z,56.92
2022-09-01T08:13:38.922Z,55.17
2022-09-01T08:16:16.850Z,55.38
2022-09-01T08:18:48.600Z,55.26
2022-09-01T08:21:22.224Z,56.60
2022-09-01T08:23:54.424Z,57.21
2022-09-01T08:26:23.428Z,58.25
2022-09-01T08:28:55.194Z,56.88
2022-09-01T08:31:24.630Z,56.63
2022-09-01T08:33:52.214Z,56.66
2022-09-01T08:36:23.698Z,56.64
2022-09-01T08:38:52.724Z,57.33
2022-09-01T08:41:28.559Z,58.08
2022-09-01T08:44:00.336Z,56.20
2022-09-01T08:46:28.715Z,54.28
2022-09-01T08:49:24.120Z,54.10
2022-09-01T08:51:48.066Z,56.08
2022-09-01T08:54:29.750Z,52.24
2022-09-01T08:57:02.435Z,56.49
2022-09-01T08:59:36.146Z,56.93
2022-09-01T09:04:53.539Z,58.22
2022-09-01T09:07:39.392Z,58.15
2022-09-01T09:10:12.998Z,58.61
2022-09-01T09:12:49.558Z,57.26
2022-09-01T09:15:19.159Z,56.61
2022-09-01T09:17:47.810Z,56.68
2022-09-01T09:20:14.985Z,53.67
2022-09-01T09:22:42.489Z,55.71
2022-09-01T09:25:10.875Z,56.35
2022-09-01T09:27:39.274Z,55.77
2022-09-01T09:30:12.913Z,57.83
2022-09-01T09:33:19.979Z,56.78
2022-09-01T09:35:36.346Z,57.14
2022-09-01T09:38:33.639Z,56.12
2022-09-01T09:41:20.398Z,53.74
2022-09-01T09:43:49.752Z,55.20
2022-09-01T09:46:25.276Z,56.05
2022-09-01T09:49:11.267Z,56.51
2022-09-01T09:51:39.602Z,54.34
2022-09-01T09:54:22.173Z,51.23
2022-09-01T09:56:50.080Z,50.16
2022-09-01T09:59:45.873Z,54.86
2022-09-01T10:02:23.162Z,53.06
2022-09-01T10:04:56.185Z,53.43
2022-09-01T10:07:26.624Z,53.87
2022-09-01T10:09:55.021Z,52.36
2022-09-01T10:12:23.777Z,55.01
2022-09-01T10:15:05.537Z,53.80
2022-09-01T10:17:43.520Z,54.60
2022-09-01T10:20:17.055Z,51.19
2022-09-01T10:22:44.792Z,46.81
2022-09-01T10:25:14.376Z,47.34
2022-09-01T10:27:42.442Z,47.65
2022-09-01T10:30:20.112Z,46.39
2022-09-01T10:32:55.224Z,43.63
2022-09-01T10:35:27.466Z,42.88
2022-09-01T10:37:54.923Z,42.77
2022-09-01T10:40:32.056Z,44.74
2022-09-01T10:43:05.488Z,48.98
2022-09-01T10:45:34.563Z,46.80
2022-09-01T10:48:30.487Z,41.95
2022-09-01T10:51:18.431Z,45.96
2022-09-01T10:53:47.143Z,41.63
2022-09-01T10:56:36.643Z,40.18
2022-09-01T11:02:22.994Z,39.64
2022-09-01T11:04:41.557Z,41.38
2022-09-01T11:07:50.759Z,42.82
2022-09-01T11:10:32.773Z,41.39
2022-09-01T11:13:01.047Z,40.17
2022-09-01T11:15:35.461Z,38.75
2022-09-01T11:18:03.671Z,40.18
2022-09-01T11:20:34.870Z,35.92
2022-09-01T11:23:22.031Z,36.52
2022-09-01T11:26:19.052Z,38.69
2022-09-01T11:28:38.035Z,40.41
2022-09-01T11:31:08.628Z,40.10
2022-09-01T11:33:39.508Z,37.24
2022-09-01T11:36:12.750Z,35.86
2022-09-01T11:38:55.224Z,34.97
2022-09-01T11:41:29.001Z,34.31
2022-09-01T11:43:58.183Z,34.01
2022-09-01T11:46:27.342Z,32.72
2022-09-01T11:48:54.967Z,35.36
2022-09-01T11:51:22.128Z,33.40
2022-09-01T11:53:50.493Z,34.00
2022-09-01T11:56:20.044Z,35.17
2022-09-01T11:58:47.561Z,32.74
2022-09-01T12:01:18.223Z,32.84
2022-09-01T12:03:47.218Z,33.00
2022-09-01T12:06:19.007Z,34.39
2022-09-01T12:08:51.589Z,34.29
2022-09-01T12:11:19.956Z,32.64
2022-09-01T12:14:05.618Z,33.37
2022-09-01T12:16:37.887Z,31.01
2022-09-01T12:19:05.856Z,31.64
2022-09-01T12:21:34.676Z,32.67
2022-09-01T12:24:20.809Z,32.21
2022-09-01T12:26:48.948Z,32.23
2022-09-01T12:29:16.492Z,29.86
2022-09-01T12:31:44.841Z,34.96
2022-09-01T12:34:30.933Z,30.36
2022-09-01T12:37:16.623Z,32.03
2022-09-01T12:39:46.179Z,31.68
2022-09-01T12:42:19.339Z,31.03
2022-09-01T12:44:49.156Z,29.51
2022-09-01T12:47:33.570Z,33.90
2022-09-01T12:50:03.463Z,30.13
2022-09-01T12:52:31.067Z,30.73
2022-09-01T12:54:58.355Z,30.13
2022-09-01T12:57:29.867Z,31.04
2022-09-01T13:00:06.759Z,31.09
2022-09-01T13:02:38.374Z,31.74
2022-09-01T13:05:19.210Z,32.04
2022-09-01T13:07:46.633Z,30.58
2022-09-01T13:10:14.706Z,31.18
2022-09-01T13:12:42.123Z,31.53
2022-09-01T13:15:10.194Z,31.85
2022-09-01T13:17:38.380Z,29.69
2022-09-01T13:20:06.570Z,30.13
2022-09-01T13:22:35.133Z,30.61
2022-09-01T13:25:02.309Z,29.52
2022-09-01T13:27:29.514Z,30.75
2022-09-01T13:29:57.173Z,30.33
2022-09-01T13:32:26.757Z,30.59
2022-09-01T13:34:55.116Z,30.54
2022-09-01T13:37:24.096Z,30.42
2022-09-01T13:39:51.450Z,31.08
2022-09-01T13:42:22.098Z,29.71
2022-09-01T13:44:54.075Z,29.59
2022-09-01T13:47:31.796Z,29.27
2022-09-01T13:50:11.137Z,28.70
2022-09-01T13:52:43.198Z,29.60
2022-09-01T13:55:11.800Z,30.77
2022-09-01T13:57:39.038Z,32.36
2022-09-01T14:00:08.998Z,31.72
2022-09-01T14:02:40.707Z,29.29
2022-09-01T14:05:08.478Z,29.56
2022-09-01T14:07:35.739Z,31.01
2022-09-01T14:10:02.932Z,30.55
2022-09-01T14:12:30.845Z,27.70
2022-09-01T14:15:16.493Z,28.52
2022-09-01T14:17:44.601Z,28.58
2022-09-01T14:20:13.748Z,28.26
2022-09-01T14:22:41.063Z,28.03
2022-09-01T14:25:09.013Z,30.67
2022-09-01T14:27:36.382Z,29.99
2022-09-01T14:30:04.536Z,27.98
2022-09-01T14:32:32.035Z,30.67
2022-09-01T14:34:59.197Z,29.16
2022-09-01T14:37:26.404Z,29.55
2022-09-01T14:39:54.851Z,30.10
2022-09-01T14:42:24.045Z,29.55
2022-09-01T14:44:51.538Z,28.72
2022-09-01T14:47:21.396Z,27.82
2022-09-01T14:49:48.556Z,33.65
2022-09-01T14:52:17.808Z,29.34
2022-09-01T14:54:45.435Z,28.51
2022-09-01T14:57:36.301Z,27.69
2022-09-01T15:00:01.514Z,28.04
2022-09-01T15:02:31.534Z,29.13
2022-09-01T15:04:58.743Z,29.19
2022-09-01T15:07:26.167Z,28.91
2022-09-01T15:09:53.391Z,28.95
2022-09-01T15:12:21.736Z,29.73
2022-09-01T15:14:49.223Z,28.14
2022-09-01T15:17:16.415Z,29.50
2022-09-01T15:19:43.605Z,28.00
2022-09-01T15:22:14.475Z,26.67
2022-09-01T15:24:41.971Z,26.93
2022-09-01T15:27:09.700Z,27.51
2022-09-01T15:29:46.191Z,27.04
2022-09-01T15:32:20.512Z,27.44
2022-09-01T15:34:55.515Z,28.68
2022-09-01T15:37:22.696Z,27.12
2022-09-01T15:39:49.947Z,28.45
2022-09-01T15:42:18.502Z,27.91
2022-09-01T15:44:47.332Z,28.29
2022-09-01T15:47:14.504Z,28.88
2022-09-01T15:49:43.511Z,30.30
2022-09-01T15:52:10.854Z,30.36
2022-09-01T15:54:38.154Z,30.32
2022-09-01T15:57:06.428Z,29.94
2022-09-01T15:59:40.054Z,30.53
2022-09-01T16:02:07.874Z,30.36
2022-09-01T16:04:35.346Z,28.95
2022-09-01T16:07:02.601Z,31.54
2022-09-01T16:09:29.756Z,32.23
2022-09-01T16:11:57.289Z,32.46
2022-09-01T16:14:24.445Z,33.00
2022-09-01T16:16:54.655Z,33.56
2022-09-01T16:19:22.599Z,33.41
2022-09-01T16:21:53.359Z,32.63
2022-09-01T16:24:20.726Z,33.65
2022-09-01T16:26:48.492Z,35.11
2022-09-01T16:29:21.987Z,34.89
2022-09-01T16:31:51.493Z,37.05
2022-09-01T16:34:18.750Z,37.67
2022-09-01T16:36:59.409Z,36.98
2022-09-01T16:39:29.797Z,37.91
2022-09-01T16:42:01.271Z,35.16
2022-09-01T16:44:31.768Z,35.19
2022-09-01T16:47:19.234Z,34.47
2022-09-01T16:50:03.929Z,36.16
2022-09-01T16:52:34.492Z,35.53
2022-09-01T16:55:06.202Z,35.00
2022-09-01T16:57:45.646Z,36.21
2022-09-01T17:00:14.189Z,36.69
2022-09-01T17:02:42.014Z,36.21
2022-09-01T17:05:13.016Z,37.40
2022-09-01T17:07:45.029Z,39.10
2022-09-01T17:10:25.025Z,39.81
2022-09-01T17:12:55.991Z,40.01
2022-09-01T17:15:40.092Z,40.08
2022-09-01T17:18:22.098Z,39.72
2022-09-01T17:20:58.095Z,39.71
2022-09-01T17:23:28.747Z,39.92
2022-09-01T17:26:07.935Z,38.50
2022-09-01T17:28:37.020Z,40.87
2022-09-01T17:31:14.640Z,38.85
2022-09-01T17:33:48.103Z,40.87
2022-09-01T17:36:22.822Z,41.79
2022-09-01T17:39:01.480Z,42.07
2022-09-01T17:41:38.127Z,42.37
2022-09-01T17:44:24.081Z,43.64
2022-09-01T17:46:54.974Z,44.86
2022-09-01T17:49:28.766Z,44.56
2022-09-01T17:52:15.222Z,43.75
2022-09-01T17:54:58.643Z,43.85
2022-09-01T17:57:39.396Z,42.69
2022-09-01T18:00:08.984Z,43.35
2022-09-01T18:02:46.752Z,43.82
2022-09-01T18:05:15.036Z,44.06
2022-09-01T18:08:01.205Z,44.95
2022-09-01T18:10:49.439Z,45.68
2022-09-01T18:13:30.747Z,44.96
2022-09-01T18:16:06.836Z,44.81
2022-09-01T18:18:38.168Z,46.41
2022-09-01T18:21:08.173Z,47.70
2022-09-01T18:23:37.472Z,46.97
2022-09-01T18:26:23.240Z,47.02
2022-09-01T18:28:51.565Z,46.27
2022-09-01T18:31:25.675Z,46.71
2022-09-01T18:33:53.138Z,45.79
2022-09-01T18:36:34.052Z,45.62
2022-09-01T18:39:09.731Z,45.97
2022-09-01T18:41:43.047Z,46.82
2022-09-01T18:44:26.700Z,46.24
2022-09-01T18:47:03.060Z,46.18
2022-09-01T18:49:35.796Z,47.33
2022-09-01T18:52:06.426Z,48.07
2022-09-01T18:54:35.729Z,48.18
2022-09-01T18:57:07.076Z,48.44
2022-09-01T18:59:38.712Z,48.19
2022-09-01T19:02:06.759Z,48.40
2022-09-01T19:04:37.947Z,47.13
2022-09-01T19:07:06.006Z,47.69
2022-09-01T19:09:39.338Z,48.72
2022-09-01T19:12:10.849Z,48.91
2022-09-01T19:14:57.351Z,48.98
2022-09-01T19:17:25.136Z,47.84
2022-09-01T19:19:52.352Z,48.80
2022-09-01T19:22:21.858Z,47.58
2022-09-01T19:25:19.895Z,47.64
2022-09-01T19:27:50.872Z,46.22
2022-09-01T19:30:18.702Z,47.58
2022-09-01T19:32:46.234Z,49.20
2022-09-01T19:35:15.060Z,48.36
2022-09-01T19:37:46.711Z,48.38
2022-09-01T19:40:18.131Z,47.41
2022-09-01T19:42:58.011Z,47.64
2022-09-01T19:45:29.260Z,48.17
2022-09-01T19:48:04.769Z,49.09
2022-09-01T19:50:46.215Z,49.36
2022-09-01T19:53:24.051Z,49.25
2022-09-01T19:55:55.411Z,49.25
2022-09-01T19:58:38.509Z,49.50
2022-09-01T20:01:05.868Z,48.87
2022-09-01T20:03:34.888Z,48.75
2022-09-01T20:06:06.991Z,48.23
2022-09-01T20:08:40.525Z,48.15
2022-09-01T20:11:10.696Z,49.06
2022-09-01T20:13:47.898Z,48.78
2022-09-01T20:16:21.125Z,48.91
2022-09-01T20:19:03.587Z,49.58
2022-09-01T20:21:31.385Z,48.63
2022-09-01T20:23:58.745Z,48.45
2022-09-01T20:26:27.099Z,49.63
2022-09-01T20:29:26.799Z,48.50
2022-09-01T20:31:55.977Z,48.77
2022-09-01T20:34:35.505Z,50.31
2022-09-01T20:37:03.455Z,50.16
2022-09-01T20:39:58.681Z,50.45
2022-09-01T20:42:35.140Z,50.18
2022-09-01T20:45:10.328Z,51.72
2022-09-01T20:47:37.737Z,51.63
2022-09-01T20:50:10.536Z,50.88
2022-09-01T20:52:53.331Z,50.96
2022-09-01T20:55:36.095Z,51.70
2022-09-01T20:58:09.368Z,51.74
2022-09-01T21:00:50.380Z,52.85
2022-09-01T21:03:33.950Z,53.01
2022-09-01T21:06:07.888Z,53.08
2022-09-01T21:08:37.065Z,52.82
2022-09-01T21:11:13.883Z,51.81
2022-09-01T21:13:44.357Z,52.59
2022-09-01T21:16:30.618Z,51.69
2022-09-01T21:19:01.947Z,52.61
2022-09-01T21:21:29.113Z,52.06
2022-09-01T21:23:56.342Z,52.79
2022-09-01T21:26:24.976Z,51.98
2022-09-01T21:28:53.554Z,52.46
2022-09-01T21:31:21.398Z,52.22
2022-09-01T21:33:48.861Z,52.80
2022-09-01T21:36:16.412Z,52.10
2022-09-01T21:38:43.604Z,52.17
2022-09-01T21:41:13.252Z,53.06
2022-09-01T21:43:41.822Z,52.16
2022-09-01T21:46:09.376Z,52.30
2022-09-01T21:48:37.143Z,52.73
2022-09-01T21:51:04.820Z,53.10
2022-09-01T21:53:32.283Z,52.97
2022-09-01T21:55:59.934Z,53.06
2022-09-01T21:58:27.292Z,53.34
2022-09-01T22:00:54.563Z,52.66
2022-09-01T22:03:22.101Z,53.38
2022-09-01T22:05:51.197Z,53.22
2022-09-01T22:08:19.007Z,53.80
2022-09-01T22:10:51.579Z,53.51
2022-09-01T22:13:19.385Z,53.34
2022-09-01T22:15:47.941Z,53.38
2022-09-01T22:18:15.680Z,52.67
2022-09-01T22:20:42.905Z,50.90
2022-09-01T22:23:10.458Z,51.08
2022-09-01T22:25:40.676Z,50.75
2022-09-01T22:28:07.903Z,48.77
2022-09-01T22:30:35.568Z,46.99
2022-09-01T22:33:04.310Z,44.92
2022-09-01T22:35:32.570Z,45.06
2022-09-01T22:38:00.042Z,43.16
2022-09-01T22:40:27.260Z,43.87
2022-09-01T22:42:56.736Z,44.15
2022-09-01T22:45:24.270Z,43.92
2022-09-01T22:47:51.485Z,42.69
2022-09-01T22:50:18.668Z,44.27
2022-09-01T22:52:47.203Z,40.50
2022-09-01T22:55:14.420Z,41.25
2022-09-01T22:57:41.665Z,42.05
2022-09-01T23:00:10.116Z,39.59
2022-09-01T23:02:37.458Z,39.69
2022-09-01T23:05:06.090Z,39.98
2022-09-01T23:07:34.492Z,38.94
2022-09-01T23:10:01.643Z,39.69
2022-09-01T23:12:37.737Z,39.95
2022-09-01T23:15:05.645Z,38.82
2022-09-01T23:17:33.201Z,38.95
2022-09-01T23:20:02.312Z,37.20
2022-09-01T23:22:29.830Z,35.92
2022-09-01T23:24:56.960Z,36.48
2022-09-01T23:27:24.177Z,37.88
2022-09-01T23:29:51.808Z,36.76
2022-09-01T23:32:19.253Z,36.87
2022-09-01T23:34:47.747Z,36.84
2022-09-01T23:37:15.167Z,36.59
2022-09-01T23:39:42.504Z,37.22
2022-09-01T23:42:09.836Z,37.16
2022-09-01T23:44:37.256Z,37.69
2022-09-01T23:47:04.419Z,37.24
2022-09-01T23:49:31.557Z,36.15
2022-09-01T23:51:59.118Z,37.15
2022-09-01T23:54:27.299Z,36.70
2022-09-01T23:56:54.474Z,36.02
2022-09-01T23:59:27.502Z,35.80
